createdAt,value
2018-03-23T00:01:04.809Z,15.87
2018-03-23T00:03:32.289Z,16.73
2018-03-23T00:05:59.756Z,17.13
2018-03-23T00:08:27.260Z,17.83
2018-03-23T00:10:54.721Z,19.23
2018-03-23T00:13:22.194Z,19.97
2018-03-23T00:15:49.666Z,15.30
2018-03-23T00:18:17.121Z,18.93
2018-03-23T00:20:44.792Z,14.73
2018-03-23T00:23:12.260Z,19.40
2018-03-23T00:25:39.726Z,16.97
2018-03-23T00:28:07.212Z,17.20
2018-03-23T00:30:34.661Z,17.90
2018-03-23T00:33:02.110Z,19.63
2018-03-23T00:35:29.738Z,19.30
2018-03-23T00:37:57.194Z,17.80
2018-03-23T00:40:24.645Z,24.90
2018-03-23T00:42:52.161Z,20.33
2018-03-23T00:45:19.625Z,22.10
2018-03-23T00:47:47.077Z,19.30
2018-03-23T00:50:14.760Z,22.07
2018-03-23T00:52:42.243Z,20.50
2018-03-23T00:55:09.713Z,20.27
2018-03-23T00:57:37.361Z,20.67
2018-03-23T01:00:04.832Z,26.03
2018-03-23T01:02:32.277Z,24.67
2018-03-23T01:04:59.882Z,25.93
2018-03-23T01:07:27.337Z,21.67
2018-03-23T01:09:54.789Z,22.97
2018-03-23T01:12:22.513Z,24.93
2018-03-23T01:14:49.974Z,24.20
2018-03-23T01:17:17.427Z,22.50
2018-03-23T01:19:45.008Z,27.87
2018-03-23T01:22:15.272Z,26.63
2018-03-23T01:24:42.733Z,25.17
2018-03-23T01:27:10.205Z,34.90
2018-03-23T01:29:37.667Z,22.97
2018-03-23T01:32:05.114Z,21.17
2018-03-23T01:34:32.801Z,25.30
2018-03-23T01:37:00.272Z,24.13
2018-03-23T01:39:27.713Z,29.07
2018-03-23T01:41:55.413Z,22.87
2018-03-23T01:44:22.864Z,24.03
2018-03-23T01:46:50.318Z,25.27
2018-03-23T01:49:17.990Z,19.70
2018-03-23T01:51:45.437Z,22.43
2018-03-23T01:54:12.885Z,28.30
2018-03-23T01:56:40.531Z,27.03
2018-03-23T01:59:07.982Z,27.00
2018-03-23T02:01:35.442Z,23.37
2018-03-23T02:04:02.921Z,27.67
2018-03-23T02:06:30.385Z,23.20
2018-03-23T02:08:57.832Z,23.60
2018-03-23T02:11:25.453Z,27.50
2018-03-23T02:13:52.893Z,34.93
2018-03-23T02:16:20.333Z,31.60
2018-03-23T02:18:48.074Z,33.00
2018-03-23T02:21:15.529Z,28.27
2018-03-23T02:23:42.985Z,30.13
2018-03-23T02:26:10.482Z,26.97
2018-03-23T02:28:37.987Z,26.33
2018-03-23T02:31:05.440Z,27.53
2018-03-23T02:33:32.913Z,22.10
2018-03-23T02:36:00.365Z,25.33
2018-03-23T02:38:27.805Z,24.53
2018-03-23T02:40:55.392Z,24.47
2018-03-23T02:43:22.843Z,27.83
2018-03-23T02:45:50.294Z,26.07
2018-03-23T02:48:17.916Z,29.03
2018-03-23T02:50:45.371Z,29.07
2018-03-23T02:53:12.810Z,28.27
2018-03-23T02:55:40.418Z,24.87
2018-03-23T02:58:07.872Z,27.47
2018-03-23T03:00:35.317Z,28.47
2018-03-23T03:03:03.038Z,35.23
2018-03-23T03:05:30.486Z,33.40
2018-03-23T03:07:57.945Z,30.37
2018-03-23T03:10:25.577Z,32.50
2018-03-23T03:12:53.021Z,29.30
2018-03-23T03:15:20.466Z,32.77
2018-03-23T03:17:47.949Z,27.33
2018-03-23T03:20:15.393Z,28.40
2018-03-23T03:22:42.853Z,31.40
2018-03-23T03:25:10.492Z,35.13
2018-03-23T03:27:37.937Z,28.03
2018-03-23T03:30:05.386Z,30.43
2018-03-23T03:32:32.853Z,34.83
2018-03-23T03:35:00.317Z,36.83
2018-03-23T03:37:27.783Z,35.03
2018-03-23T03:39:55.250Z,35.93
2018-03-23T03:42:22.705Z,37.67
2018-03-23T03:44:50.210Z,40.60
2018-03-23T03:47:17.677Z,37.17
2018-03-23T03:49:45.117Z,45.40
2018-03-23T03:52:12.590Z,34.83
2018-03-23T03:54:40.063Z,50.63
2018-03-23T03:57:07.541Z,47.60
2018-03-23T03:59:34.989Z,46.67
2018-03-23T04:02:02.450Z,41.47
2018-03-23T04:04:29.911Z,38.60
2018-03-23T04:06:57.378Z,40.50
2018-03-23T04:09:25.054Z,39.93
2018-03-23T04:11:52.497Z,45.73
2018-03-23T04:14:19.939Z,39.87
2018-03-23T04:16:47.404Z,42.30
2018-03-23T04:19:14.858Z,38.93
2018-03-23T04:21:42.326Z,41.20
2018-03-23T04:24:09.776Z,37.07
2018-03-23T04:26:37.237Z,41.50
2018-03-23T04:29:04.707Z,37.27
2018-03-23T04:31:32.155Z,47.07
2018-03-23T04:33:59.777Z,50.07
2018-03-23T04:36:27.218Z,44.87
2018-03-23T04:38:54.661Z,37.97
2018-03-23T04:41:22.146Z,43.93
2018-03-23T04:43:49.589Z,44.67
2018-03-23T04:46:17.174Z,47.33
2018-03-23T04:48:44.641Z,51.00
2018-03-23T04:51:12.089Z,46.83
2018-03-23T04:53:39.561Z,52.13
2018-03-23T04:56:07.014Z,52.43
2018-03-23T04:58:34.574Z,47.33
2018-03-23T05:01:02.034Z,45.07
2018-03-23T05:03:29.489Z,51.90
2018-03-23T05:05:56.953Z,51.77
2018-03-23T05:08:24.405Z,53.80
2018-03-23T05:10:52.070Z,46.97
2018-03-23T05:13:19.572Z,51.87
2018-03-23T05:15:46.973Z,48.20
2018-03-23T05:18:14.441Z,51.27
2018-03-23T05:20:41.889Z,48.60
2018-03-23T05:23:09.370Z,52.67
2018-03-23T05:25:36.818Z,55.53
2018-03-23T05:28:04.273Z,46.70
2018-03-23T05:30:31.737Z,48.30
2018-03-23T05:32:59.181Z,54.73
2018-03-23T05:35:26.675Z,66.50
2018-03-23T05:37:54.141Z,60.50
2018-03-23T05:40:21.597Z,55.83
2018-03-23T05:42:49.068Z,55.60
2018-03-23T05:45:17.593Z,60.10
2018-03-23T05:47:45.074Z,65.73
2018-03-23T05:50:12.527Z,57.27
2018-03-23T05:52:39.970Z,50.27
2018-03-23T05:55:07.442Z,52.10
2018-03-23T05:57:34.889Z,46.00
2018-03-23T06:00:02.491Z,56.27
2018-03-23T06:02:29.953Z,48.87
2018-03-23T06:04:57.393Z,48.00
2018-03-23T06:07:24.857Z,48.37
2018-03-23T06:09:52.313Z,46.37
2018-03-23T06:12:20.276Z,51.27
2018-03-23T06:14:47.745Z,63.77
2018-03-23T06:17:15.185Z,51.53
2018-03-23T06:19:42.661Z,52.73
2018-03-23T06:22:10.106Z,65.87
2018-03-23T06:24:37.825Z,62.23
2018-03-23T06:27:05.272Z,64.03
2018-03-23T06:29:32.721Z,63.50
2018-03-23T06:32:00.180Z,67.43
2018-03-23T06:34:27.629Z,66.50
2018-03-23T06:36:55.425Z,66.57
2018-03-23T06:39:22.874Z,59.23
2018-03-23T06:41:50.322Z,55.50
2018-03-23T06:44:17.790Z,54.13
2018-03-23T06:46:45.233Z,55.40
2018-03-23T06:49:12.705Z,69.57
2018-03-23T06:51:40.154Z,57.90
2018-03-23T06:54:07.753Z,63.43
2018-03-23T06:56:35.215Z,51.13
2018-03-23T06:59:02.665Z,64.33
2018-03-23T07:01:30.141Z,49.43
2018-03-23T07:03:57.582Z,46.30
2018-03-23T07:06:25.029Z,58.73
2018-03-23T07:08:52.494Z,55.80
2018-03-23T07:11:19.936Z,52.07
2018-03-23T07:13:47.597Z,62.70
2018-03-23T07:16:15.049Z,60.93
2018-03-23T07:18:42.503Z,45.00
2018-03-23T07:21:09.986Z,45.93
2018-03-23T07:23:37.441Z,49.43
2018-03-23T07:26:04.919Z,53.03
2018-03-23T07:28:32.374Z,57.83
2018-03-23T07:30:59.822Z,59.50
2018-03-23T07:33:27.301Z,49.13
2018-03-23T07:35:54.747Z,49.57
2018-03-23T07:38:22.274Z,43.23
2018-03-23T07:40:49.718Z,39.23
2018-03-23T07:43:17.161Z,53.63
2018-03-23T07:45:44.659Z,55.40
2018-03-23T07:48:12.138Z,48.13
2018-03-23T07:50:39.798Z,57.07
2018-03-23T07:53:07.261Z,50.80
2018-03-23T07:55:34.701Z,42.63
2018-03-23T07:58:02.195Z,48.70
2018-03-23T08:00:29.650Z,57.63
2018-03-23T08:02:57.113Z,57.57
2018-03-23T08:05:24.556Z,57.23
2018-03-23T08:07:51.993Z,59.33
2018-03-23T08:10:19.458Z,49.40
2018-03-23T08:12:46.901Z,49.80
2018-03-23T08:15:14.370Z,47.60
2018-03-23T08:17:41.814Z,39.03
2018-03-23T08:20:09.264Z,45.97
2018-03-23T08:22:36.753Z,42.33
2018-03-23T08:25:04.194Z,53.03
2018-03-23T08:27:31.693Z,44.70
2018-03-23T08:29:59.138Z,50.77
2018-03-23T08:32:26.583Z,52.13
2018-03-23T08:34:54.046Z,41.77
2018-03-23T08:37:21.493Z,43.97
2018-03-23T08:39:49.155Z,38.90
2018-03-23T08:42:16.605Z,41.33
2018-03-23T08:44:44.078Z,43.43
2018-03-23T08:47:11.557Z,41.83
2018-03-23T08:49:39.000Z,36.33
2018-03-23T08:52:06.697Z,27.10
2018-03-23T08:54:34.145Z,39.50
2018-03-23T08:57:01.617Z,33.20
2018-03-23T08:59:29.076Z,35.10
2018-03-23T09:01:56.521Z,33.27
2018-03-23T09:04:24.013Z,39.90
2018-03-23T09:06:51.462Z,33.90
2018-03-23T09:09:18.908Z,25.93
2018-03-23T09:11:46.387Z,28.63
2018-03-23T09:14:13.837Z,35.47
2018-03-23T09:16:41.353Z,31.03
2018-03-23T09:19:08.809Z,32.63
2018-03-23T09:21:36.582Z,30.60
2018-03-23T09:24:04.031Z,37.43
2018-03-23T09:26:31.503Z,29.33
2018-03-23T09:28:59.012Z,30.57
2018-03-23T09:31:26.485Z,27.70
2018-03-23T09:33:53.991Z,29.13
2018-03-23T09:36:21.446Z,25.60
2018-03-23T09:38:48.893Z,21.10
2018-03-23T09:41:16.391Z,24.37
2018-03-23T09:43:43.834Z,25.07
2018-03-23T09:46:11.298Z,22.87
2018-03-23T09:48:38.782Z,19.50
2018-03-23T09:51:06.249Z,26.10
2018-03-23T09:53:34.654Z,21.90
2018-03-23T09:56:02.106Z,17.87
2018-03-23T09:58:29.809Z,17.10
2018-03-23T10:00:57.263Z,21.17
2018-03-23T10:03:24.735Z,17.90
2018-03-23T10:05:52.204Z,17.13
2018-03-23T10:08:19.673Z,19.53
2018-03-23T10:10:47.188Z,18.47
2018-03-23T10:13:14.655Z,17.80
2018-03-23T10:15:42.097Z,17.83
2018-03-23T10:18:09.581Z,13.83
2018-03-23T10:20:37.030Z,15.57
2018-03-23T10:23:04.782Z,14.37
2018-03-23T10:25:32.290Z,13.70
2018-03-23T10:27:59.741Z,10.73
2018-03-23T10:30:27.201Z,15.80
2018-03-23T10:32:54.647Z,14.03
2018-03-23T10:35:22.122Z,12.43
2018-03-23T10:37:49.571Z,12.00
2018-03-23T10:40:17.018Z,13.87
2018-03-23T10:42:44.481Z,11.27
2018-03-23T10:45:11.951Z,9.33
2018-03-23T10:47:39.434Z,12.80
2018-03-23T10:50:06.904Z,11.20
2018-03-23T10:52:34.341Z,11.47
2018-03-23T10:55:01.802Z,11.70
2018-03-23T10:57:29.269Z,9.97
2018-03-23T10:59:56.754Z,9.90
2018-03-23T11:02:41.886Z,8.97
2018-03-23T11:05:09.369Z,9.37
2018-03-23T11:07:36.808Z,9.23
2018-03-23T11:10:04.299Z,14.93
2018-03-23T11:12:31.775Z,8.23
2018-03-23T11:14:59.223Z,10.33
2018-03-23T11:17:26.985Z,8.33
2018-03-23T11:19:54.439Z,12.27
2018-03-23T11:22:21.873Z,8.47
2018-03-23T11:24:49.361Z,10.23
2018-03-23T11:27:16.821Z,9.30
2018-03-23T11:29:44.401Z,8.93
2018-03-23T11:32:11.857Z,9.10
2018-03-23T11:34:39.289Z,8.33
2018-03-23T11:37:06.766Z,10.77
2018-03-23T11:39:34.210Z,7.63
2018-03-23T11:42:01.766Z,5.40
2018-03-23T11:44:29.205Z,7.63
2018-03-23T11:46:56.754Z,7.53
2018-03-23T11:49:24.215Z,5.93
2018-03-23T11:51:51.670Z,10.37
2018-03-23T11:54:19.164Z,18.33
2018-03-23T11:56:46.624Z,15.23
2018-03-23T11:59:14.078Z,9.43
2018-03-23T12:01:41.537Z,10.80
2018-03-23T12:04:09.001Z,7.77
2018-03-23T12:06:36.614Z,8.93
2018-03-23T12:09:04.071Z,10.77
2018-03-23T12:11:31.517Z,8.23
2018-03-23T12:13:58.973Z,8.53
2018-03-23T12:16:26.408Z,9.63
2018-03-23T12:18:54.032Z,7.37
2018-03-23T12:21:21.470Z,8.33
2018-03-23T12:23:48.991Z,9.60
2018-03-23T12:26:16.462Z,8.43
2018-03-23T12:28:43.939Z,7.83
2018-03-23T12:31:11.661Z,9.17
2018-03-23T12:33:39.121Z,11.60
2018-03-23T12:36:06.570Z,19.40
2018-03-23T12:38:34.049Z,11.17
2018-03-23T12:41:01.491Z,9.97
2018-03-23T12:43:29.199Z,12.23
2018-03-23T12:45:56.642Z,13.70
2018-03-23T12:48:24.105Z,12.13
2018-03-23T12:50:51.601Z,14.47
2018-03-23T12:53:19.074Z,16.90
2018-03-23T12:55:46.746Z,11.00
2018-03-23T12:58:14.203Z,9.90
2018-03-23T13:00:41.678Z,13.80
2018-03-23T13:03:09.150Z,10.80
2018-03-23T13:05:36.728Z,11.47
2018-03-23T13:08:04.201Z,11.10
2018-03-23T13:10:31.709Z,14.37
2018-03-23T13:12:59.293Z,13.40
2018-03-23T13:15:26.781Z,13.13
2018-03-23T13:17:54.221Z,12.10
2018-03-23T13:20:21.856Z,14.13
2018-03-23T13:22:49.322Z,13.93
2018-03-23T13:25:16.794Z,15.67
2018-03-23T13:27:44.253Z,15.40
2018-03-23T13:30:11.702Z,21.23
2018-03-23T13:32:39.305Z,17.53
2018-03-23T13:35:06.749Z,15.90
2018-03-23T13:37:34.221Z,19.83
2018-03-23T13:40:01.714Z,20.37
2018-03-23T13:42:29.170Z,20.70
2018-03-23T13:44:56.638Z,23.53
2018-03-23T13:47:24.099Z,21.83
2018-03-23T13:49:51.566Z,22.73
2018-03-23T13:52:19.323Z,23.87
2018-03-23T13:54:46.781Z,25.70
2018-03-23T13:57:14.521Z,28.93
2018-03-23T13:59:47.513Z,27.50
2018-03-23T14:02:15.011Z,27.70
2018-03-23T14:04:42.481Z,34.50
2018-03-23T14:07:09.932Z,31.23
2018-03-23T14:09:37.433Z,31.23
2018-03-23T14:12:04.881Z,30.40
2018-03-23T14:14:32.367Z,31.07
2018-03-23T14:16:59.817Z,30.23
2018-03-23T14:19:27.276Z,33.73
2018-03-23T14:21:54.745Z,32.53
2018-03-23T14:24:22.193Z,27.60
2018-03-23T14:26:49.669Z,36.47
2018-03-23T14:29:17.116Z,30.23
2018-03-23T14:31:44.585Z,27.17
2018-03-23T14:34:12.064Z,24.40
2018-03-23T14:36:39.516Z,32.03
2018-03-23T14:39:06.986Z,31.97
2018-03-23T14:41:34.431Z,30.50
2018-03-23T14:44:01.874Z,24.77
2018-03-23T14:46:29.346Z,39.77
2018-03-23T14:48:56.832Z,26.73
2018-03-23T14:51:24.627Z,39.23
2018-03-23T14:53:52.071Z,30.43
2018-03-23T14:56:19.525Z,32.47
2018-03-23T14:58:52.553Z,35.83
2018-03-23T15:01:20.010Z,30.43
2018-03-23T15:03:47.650Z,29.07
2018-03-23T15:06:15.118Z,24.03
2018-03-23T15:08:42.574Z,27.47
2018-03-23T15:11:10.043Z,26.87
2018-03-23T15:13:37.491Z,34.60
2018-03-23T15:16:05.014Z,31.67
2018-03-23T15:18:32.461Z,26.03
2018-03-23T15:20:59.907Z,25.40
2018-03-23T15:23:27.379Z,20.77
2018-03-23T15:25:54.818Z,22.33
2018-03-23T15:28:22.477Z,24.10
2018-03-23T15:30:49.949Z,22.37
2018-03-23T15:33:17.393Z,18.90
2018-03-23T15:35:44.866Z,19.50
2018-03-23T15:38:12.309Z,19.73
2018-03-23T15:40:39.901Z,18.30
2018-03-23T15:43:07.359Z,22.13
2018-03-23T15:45:34.807Z,15.83
2018-03-23T15:48:02.275Z,16.17
2018-03-23T15:50:29.770Z,12.73
2018-03-23T15:52:57.458Z,15.20
2018-03-23T15:55:24.942Z,20.27
2018-03-23T15:57:52.389Z,17.73
2018-03-23T16:00:19.857Z,16.17
2018-03-23T16:02:47.306Z,19.10
2018-03-23T16:05:14.806Z,11.93
2018-03-23T16:07:42.281Z,20.43
2018-03-23T16:10:09.758Z,16.17
2018-03-23T16:12:37.229Z,18.00
2018-03-23T16:15:04.681Z,15.53
2018-03-23T16:17:32.182Z,14.60
2018-03-23T16:19:59.625Z,14.93
2018-03-23T16:22:27.073Z,15.17
2018-03-23T16:24:54.564Z,28.30
2018-03-23T16:27:22.014Z,22.63
2018-03-23T16:29:49.675Z,23.00
2018-03-23T16:32:17.137Z,35.07
2018-03-23T16:34:44.598Z,17.10
2018-03-23T16:37:12.073Z,19.00
2018-03-23T16:39:39.530Z,21.93
2018-03-23T16:42:07.045Z,19.23
2018-03-23T16:44:34.495Z,20.57
2018-03-23T16:47:01.951Z,21.90
2018-03-23T16:49:29.449Z,21.90
2018-03-23T16:51:56.924Z,27.23
2018-03-23T16:54:24.597Z,21.03
2018-03-23T16:56:52.038Z,12.93
2018-03-23T16:59:19.485Z,12.73
2018-03-23T17:01:46.950Z,11.10
2018-03-23T17:04:14.392Z,10.90
2018-03-23T17:06:41.880Z,11.43
2018-03-23T17:09:09.327Z,12.80
2018-03-23T17:11:36.773Z,13.00
2018-03-23T17:14:04.245Z,14.57
2018-03-23T17:16:31.719Z,17.63
2018-03-23T17:18:59.202Z,13.93
2018-03-23T17:21:26.653Z,14.37
2018-03-23T17:23:54.099Z,12.17
2018-03-23T17:26:21.570Z,13.27
2018-03-23T17:28:49.041Z,16.97
2018-03-23T17:31:16.651Z,14.07
2018-03-23T17:33:44.097Z,14.63
2018-03-23T17:36:11.543Z,14.53
2018-03-23T17:38:39.018Z,13.80
2018-03-23T17:41:06.462Z,14.53
2018-03-23T17:43:34.101Z,17.33
2018-03-23T17:46:01.590Z,12.80
2018-03-23T17:48:29.041Z,22.67
2018-03-23T17:50:56.510Z,26.10
2018-03-23T17:53:24.030Z,17.67
2018-03-23T17:55:51.652Z,16.87
2018-03-23T17:58:19.475Z,17.70
2018-03-23T18:00:46.942Z,13.73
2018-03-23T18:03:14.425Z,13.33
2018-03-23T18:05:41.933Z,18.17
2018-03-23T18:08:09.427Z,15.80
2018-03-23T18:10:36.894Z,12.17
2018-03-23T18:13:04.360Z,17.60
2018-03-23T18:15:31.836Z,12.70
2018-03-23T18:17:59.301Z,12.93
2018-03-23T18:20:26.812Z,14.40
2018-03-23T18:22:54.272Z,17.80
2018-03-23T18:25:21.757Z,12.60
2018-03-23T18:27:49.225Z,13.80
2018-03-23T18:30:16.675Z,14.10
2018-03-23T18:32:44.312Z,13.73
2018-03-23T18:35:11.785Z,14.17
2018-03-23T18:37:39.245Z,16.10
2018-03-23T18:40:06.711Z,11.50
2018-03-23T18:42:34.184Z,17.73
2018-03-23T18:45:01.680Z,21.90
2018-03-23T18:47:29.142Z,13.27
2018-03-23T18:49:56.581Z,13.20
2018-03-23T18:52:24.066Z,11.37
2018-03-23T18:54:51.519Z,14.93
2018-03-23T18:57:19.230Z,12.33
2018-03-23T18:59:46.674Z,16.57
2018-03-23T19:02:14.122Z,16.90
2018-03-23T19:04:41.826Z,18.10
2018-03-23T19:07:09.290Z,13.30
2018-03-23T19:09:36.991Z,12.87
2018-03-23T19:12:04.446Z,16.67
2018-03-23T19:14:31.902Z,13.00
2018-03-23T19:16:59.385Z,15.17
2018-03-23T19:19:26.886Z,24.23
2018-03-23T19:21:54.355Z,12.97
2018-03-23T19:24:21.846Z,14.40
2018-03-23T19:26:49.310Z,13.70
2018-03-23T19:29:16.773Z,15.47
2018-03-23T19:31:44.218Z,16.23
2018-03-23T19:34:11.694Z,14.93
2018-03-23T19:36:39.139Z,12.83
2018-03-23T19:39:06.767Z,16.00
2018-03-23T19:41:34.255Z,21.23
2018-03-23T19:44:01.703Z,11.57
2018-03-23T19:46:29.175Z,22.43
2018-03-23T19:48:56.646Z,12.30
2018-03-23T19:51:24.172Z,15.53
2018-03-23T19:53:51.597Z,18.87
2018-03-23T19:56:19.066Z,11.30
2018-03-23T19:58:46.514Z,12.00
2018-03-23T20:01:14.143Z,16.80
2018-03-23T20:03:41.650Z,18.10
2018-03-23T20:06:09.097Z,16.23
2018-03-23T20:08:36.763Z,17.83
2018-03-23T20:11:04.219Z,19.00
2018-03-23T20:13:31.730Z,16.70
2018-03-23T20:15:59.397Z,14.50
2018-03-23T20:18:26.870Z,21.03
2018-03-23T20:21:00.003Z,14.83
2018-03-23T20:23:27.469Z,18.10
2018-03-23T20:25:54.916Z,21.10
2018-03-23T20:28:28.199Z,13.60
2018-03-23T20:30:55.714Z,15.40
2018-03-23T20:33:24.142Z,20.50
2018-03-23T20:35:51.707Z,21.93
2018-03-23T20:38:19.162Z,20.47
2018-03-23T20:40:46.659Z,21.63
2018-03-23T20:43:14.101Z,27.10
2018-03-23T20:45:41.557Z,25.00
2018-03-23T20:48:09.033Z,18.90
2018-03-23T20:50:36.481Z,21.73
2018-03-23T20:53:04.881Z,25.07
2018-03-23T20:55:32.349Z,23.00
2018-03-23T20:57:59.794Z,22.97
2018-03-23T21:00:27.284Z,20.20
2018-03-23T21:02:54.738Z,18.47
2018-03-23T21:05:23.287Z,28.70
2018-03-23T21:07:50.734Z,17.77
2018-03-23T21:10:18.198Z,18.00
2018-03-23T21:12:45.682Z,21.27
2018-03-23T21:15:13.131Z,21.13
2018-03-23T21:17:40.762Z,16.13
2018-03-23T21:20:08.254Z,21.43
2018-03-23T21:22:35.707Z,22.23
2018-03-23T21:25:03.194Z,16.50
2018-03-23T21:27:30.656Z,26.00
2018-03-23T21:29:58.426Z,18.30
2018-03-23T21:32:25.870Z,19.43
2018-03-23T21:34:53.330Z,20.60
2018-03-23T21:37:20.825Z,21.23
2018-03-23T21:39:48.309Z,20.37
2018-03-23T21:42:15.943Z,18.70
2018-03-23T21:44:43.420Z,22.57
2018-03-23T21:47:10.861Z,20.03
2018-03-23T21:49:38.341Z,28.97
2018-03-23T21:52:05.790Z,20.43
2018-03-23T21:54:33.413Z,19.70
2018-03-23T21:57:00.944Z,28.40
2018-03-23T21:59:28.405Z,23.83
2018-03-23T22:01:55.878Z,22.17
2018-03-23T22:04:23.321Z,23.60
2018-03-23T22:06:50.977Z,19.07
2018-03-23T22:09:18.425Z,25.20
2018-03-23T22:11:45.873Z,29.50
2018-03-23T22:14:13.357Z,23.07
2018-03-23T22:16:40.800Z,27.07
2018-03-23T22:19:08.424Z,23.77
2018-03-23T22:21:35.901Z,28.57
2018-03-23T22:24:03.366Z,27.27
2018-03-23T22:26:30.832Z,26.13
2018-03-23T22:28:58.277Z,24.37
2018-03-23T22:31:25.901Z,25.07
2018-03-23T22:33:53.335Z,24.30
2018-03-23T22:36:20.789Z,23.77
2018-03-23T22:38:48.261Z,28.63
2018-03-23T22:41:15.730Z,23.93
2018-03-23T22:43:43.202Z,26.80
2018-03-23T22:46:10.653Z,26.53
2018-03-23T22:48:38.102Z,23.50
2018-03-23T22:51:05.569Z,30.23
2018-03-23T22:53:33.009Z,34.23
2018-03-23T22:56:00.486Z,32.33
2018-03-23T22:58:27.946Z,23.67
2018-03-23T23:00:55.386Z,30.23
2018-03-23T23:03:22.857Z,32.33
2018-03-23T23:05:50.305Z,25.67
2018-03-23T23:08:18.014Z,30.50
2018-03-23T23:10:45.472Z,28.47
2018-03-23T23:13:12.917Z,33.50
2018-03-23T23:15:40.389Z,32.77
2018-03-23T23:18:07.885Z,34.00
2018-03-23T23:20:35.368Z,30.90
2018-03-23T23:23:02.805Z,39.47
2018-03-23T23:25:30.261Z,34.90
2018-03-23T23:27:57.750Z,28.67
2018-03-23T23:30:25.213Z,42.50
2018-03-23T23:32:52.718Z,35.13
2018-03-23T23:35:20.161Z,35.93
2018-03-23T23:37:47.609Z,40.70
2018-03-23T23:40:15.076Z,36.67
2018-03-23T23:42:42.517Z,34.03
2018-03-23T23:45:10.002Z,47.20
2018-03-23T23:47:37.481Z,30.20
2018-03-23T23:50:04.927Z,29.07
2018-03-23T23:52:32.395Z,33.50
2018-03-23T23:54:59.842Z,31.13
2018-03-23T23:57:27.321Z,29.73
2018-03-23T23:59:54.773Z,36.00
